sensor_id;sensor_type;location;lat;lon;timestamp;P1;durP1;ratioP1;P2;durP2;ratioP2
11767;SDS011;5941;57.652;12.514;2023-08-06T00:00:00;1999.90;;;999.90;;
11767;SDS011;5941;57.652;12.514;2023-08-06T00:02:26;1999.90;;;999.90;;
11767;SDS011;5941;57.652;12.514;2023-08-06T00:04:52;1999.90;;;999.90;;
11767;SDS011;5941;57.652;12.514;2023-08-06T00:07:18;1999.90;;;999.90;;
11767;SDS011;5941;57.652;12.514;2023-08-06T00:09:44;1999.90;;;999.90;;
11767;SDS011;5941;57.652;12.514;2023-08-06T00:12:10;1999.90;;;999.90;;
11767;SDS011;5941;57.652;12.514;2023-08-06T00:14:35;1999.90;;;999.90;;
11767;SDS011;5941;57.652;12.514;2023-08-06T00:17:02;1999.90;;;999.90;;
11767;SDS011;5941;57.652;12.514;2023-08-06T00:19:28;1999.90;;;999.90;;
11767;SDS011;5941;57.652;12.514;2023-08-06T00:21:54;1999.90;;;999.90;;
11767;SDS011;5941;57.652;12.514;2023-08-06T00:24:20;1999.90;;;999.90;;
11767;SDS011;5941;57.652;12.514;2023-08-06T00:26:46;1999.90;;;999.90;;
11767;SDS011;5941;57.652;12.514;2023-08-06T00:29:12;1999.90;;;999.90;;
11767;SDS011;5941;57.652;12.514;2023-08-06T00:31:38;1999.90;;;999.90;;
11767;SDS011;5941;57.652;12.514;2023-08-06T00:34:04;1999.90;;;999.90;;
11767;SDS011;5941;57.652;12.514;2023-08-06T00:36:30;1999.90;;;999.90;;
11767;SDS011;5941;57.652;12.514;2023-08-06T00:38:55;1999.90;;;999.90;;
11767;SDS011;5941;57.652;12.514;2023-08-06T00:41:21;1999.90;;;999.90;;
11767;SDS011;5941;57.652;12.514;2023-08-06T00:43:47;1999.90;;;999.90;;
11767;SDS011;5941;57.652;12.514;2023-08-06T00:46:13;1999.90;;;999.90;;
11767;SDS011;5941;57.652;12.514;2023-08-06T00:48:40;1999.90;;;999.90;;
11767;SDS011;5941;57.652;12.514;2023-08-06T00:51:06;1999.90;;;999.90;;
11767;SDS011;5941;57.652;12.514;2023-08-06T00:53:33;1999.90;;;999.90;;
11767;SDS011;5941;57.652;12.514;2023-08-06T00:55:59;1999.90;;;999.90;;
11767;SDS011;5941;57.652;12.514;2023-08-06T00:58:26;1999.90;;;999.90;;
11767;SDS011;5941;57.652;12.514;2023-08-06T01:00:51;1999.90;;;999.90;;
11767;SDS011;5941;57.652;12.514;2023-08-06T01:03:17;1999.90;;;999.90;;
11767;SDS011;5941;57.652;12.514;2023-08-06T01:05:43;1999.90;;;999.90;;
11767;SDS011;5941;57.652;12.514;2023-08-06T01:13:18;1999.90;;;999.90;;
11767;SDS011;5941;57.652;12.514;2023-08-06T01:15:49;1999.90;;;999.90;;
11767;SDS011;5941;57.652;12.514;2023-08-06T01:18:16;1999.90;;;999.90;;
11767;SDS011;5941;57.652;12.514;2023-08-06T01:20:42;1999.90;;;999.90;;
11767;SDS011;5941;57.652;12.514;2023-08-06T01:23:08;1999.90;;;999.90;;
11767;SDS011;5941;57.652;12.514;2023-08-06T01:25:35;1999.90;;;999.90;;
11767;SDS011;5941;57.652;12.514;2023-08-06T01:28:09;1999.90;;;999.90;;
11767;SDS011;5941;57.652;12.514;2023-08-06T01:30:37;1999.90;;;999.90;;
11767;SDS011;5941;57.652;12.514;2023-08-06T01:33:05;1999.90;;;999.90;;
11767;SDS011;5941;57.652;12.514;2023-08-06T01:35:35;1999.90;;;999.90;;
11767;SDS011;5941;57.652;12.514;2023-08-06T01:38:01;1999.90;;;999.90;;
11767;SDS011;5941;57.652;12.514;2023-08-06T01:40:28;1999.90;;;999.90;;
11767;SDS011;5941;57.652;12.514;2023-08-06T01:42:54;1999.90;;;999.90;;
11767;SDS011;5941;57.652;12.514;2023-08-06T01:45:20;1999.90;;;999.90;;
11767;SDS011;5941;57.652;12.514;2023-08-06T01:47:46;1999.90;;;999.90;;
11767;SDS011;5941;57.652;12.514;2023-08-06T01:50:12;1999.90;;;999.90;;
11767;SDS011;5941;57.652;12.514;2023-08-06T01:52:38;1999.90;;;999.90;;
11767;SDS011;5941;57.652;12.514;2023-08-06T01:55:04;1999.90;;;999.90;;
11767;SDS011;5941;57.652;12.514;2023-08-06T01:57:30;1999.90;;;999.90;;
11767;SDS011;5941;57.652;12.514;2023-08-06T01:59:56;1999.90;;;999.90;;
11767;SDS011;5941;57.652;12.514;2023-08-06T02:02:22;1999.90;;;999.90;;
11767;SDS011;5941;57.652;12.514;2023-08-06T02:04:48;1999.90;;;999.90;;
11767;SDS011;5941;57.652;12.514;2023-08-06T02:07:14;1999.90;;;999.90;;
11767;SDS011;5941;57.652;12.514;2023-08-06T02:09:40;1999.90;;;999.90;;
11767;SDS011;5941;57.652;12.514;2023-08-06T02:12:06;1999.90;;;999.90;;
11767;SDS011;5941;57.652;12.514;2023-08-06T02:14:33;1999.90;;;999.90;;
11767;SDS011;5941;57.652;12.514;2023-08-06T02:16:59;1999.90;;;999.90;;
11767;SDS011;5941;57.652;12.514;2023-08-06T02:19:25;1999.90;;;999.90;;
11767;SDS011;5941;57.652;12.514;2023-08-06T02:21:51;1999.90;;;999.90;;
11767;SDS011;5941;57.652;12.514;2023-08-06T02:24:17;1999.90;;;999.90;;
11767;SDS011;5941;57.652;12.514;2023-08-06T02:26:43;1999.90;;;999.90;;
11767;SDS011;5941;57.652;12.514;2023-08-06T02:29:09;1999.90;;;999.90;;
11767;SDS011;5941;57.652;12.514;2023-08-06T02:31:35;1999.90;;;999.90;;
11767;SDS011;5941;57.652;12.514;2023-08-06T02:34:01;1999.90;;;999.90;;
11767;SDS011;5941;57.652;12.514;2023-08-06T02:36:27;1999.90;;;999.90;;
11767;SDS011;5941;57.652;12.514;2023-08-06T02:38:54;1999.90;;;999.90;;
11767;SDS011;5941;57.652;12.514;2023-08-06T02:41:20;1999.90;;;999.90;;
11767;SDS011;5941;57.652;12.514;2023-08-06T02:43:46;1999.90;;;999.90;;
11767;SDS011;5941;57.652;12.514;2023-08-06T02:46:12;1999.90;;;999.90;;
11767;SDS011;5941;57.652;12.514;2023-08-06T02:48:38;1999.90;;;999.90;;
11767;SDS011;5941;57.652;12.514;2023-08-06T02:51:04;1999.90;;;999.90;;
11767;SDS011;5941;57.652;12.514;2023-08-06T02:53:30;1999.90;;;999.90;;
11767;SDS011;5941;57.652;12.514;2023-08-06T02:55:56;1999.90;;;999.90;;
11767;SDS011;5941;57.652;12.514;2023-08-06T02:58:23;1999.90;;;999.90;;
11767;SDS011;5941;57.652;12.514;2023-08-06T03:00:59;1999.90;;;999.90;;
11767;SDS011;5941;57.652;12.514;2023-08-06T03:03:26;1999.90;;;999.90;;
11767;SDS011;5941;57.652;12.514;2023-08-06T03:05:52;1999.90;;;999.90;;
11767;SDS011;5941;57.652;12.514;2023-08-06T03:08:18;1999.90;;;999.90;;
11767;SDS011;5941;57.652;12.514;2023-08-06T03:10:47;1999.90;;;999.90;;
11767;SDS011;5941;57.652;12.514;2023-08-06T03:13:13;1999.90;;;999.90;;
11767;SDS011;5941;57.652;12.514;2023-08-06T03:15:39;1999.90;;;999.90;;
11767;SDS011;5941;57.652;12.514;2023-08-06T03:18:05;1999.90;;;999.90;;
11767;SDS011;5941;57.652;12.514;2023-08-06T03:20:34;1999.90;;;999.90;;
11767;SDS011;5941;57.652;12.514;2023-08-06T03:23:00;1999.90;;;999.90;;
11767;SDS011;5941;57.652;12.514;2023-08-06T03:25:26;1999.90;;;999.90;;
11767;SDS011;5941;57.652;12.514;2023-08-06T03:27:52;1999.90;;;999.90;;
11767;SDS011;5941;57.652;12.514;2023-08-06T03:30:18;1999.90;;;999.90;;
11767;SDS011;5941;57.652;12.514;2023-08-06T03:32:44;1999.90;;;999.90;;
11767;SDS011;5941;57.652;12.514;2023-08-06T03:35:12;1999.90;;;999.90;;
11767;SDS011;5941;57.652;12.514;2023-08-06T03:37:38;1999.90;;;999.90;;
11767;SDS011;5941;57.652;12.514;2023-08-06T03:40:04;1999.90;;;999.90;;
11767;SDS011;5941;57.652;12.514;2023-08-06T03:42:30;1999.90;;;999.90;;
11767;SDS011;5941;57.652;12.514;2023-08-06T03:44:56;1999.90;;;999.90;;
11767;SDS011;5941;57.652;12.514;2023-08-06T03:47:22;1999.90;;;999.90;;
11767;SDS011;5941;57.652;12.514;2023-08-06T03:49:48;1999.90;;;999.90;;
11767;SDS011;5941;57.652;12.514;2023-08-06T03:52:14;1999.90;;;999.90;;
11767;SDS011;5941;57.652;12.514;2023-08-06T03:54:40;1999.90;;;999.90;;
11767;SDS011;5941;57.652;12.514;2023-08-06T03:57:08;1999.90;;;999.90;;
11767;SDS011;5941;57.652;12.514;2023-08-06T03:59:34;1999.90;;;999.90;;
11767;SDS011;5941;57.652;12.514;2023-08-06T04:02:00;1999.90;;;999.90;;
11767;SDS011;5941;57.652;12.514;2023-08-06T04:04:26;1999.90;;;999.90;;
11767;SDS011;5941;57.652;12.514;2023-08-06T04:06:52;1999.90;;;999.90;;
11767;SDS011;5941;57.652;12.514;2023-08-06T04:09:18;1999.90;;;999.90;;
11767;SDS011;5941;57.652;12.514;2023-08-06T04:11:44;1999.90;;;999.90;;
11767;SDS011;5941;57.652;12.514;2023-08-06T04:14:10;1999.90;;;999.90;;
11767;SDS011;5941;57.652;12.514;2023-08-06T04:16:35;1999.90;;;999.90;;
11767;SDS011;5941;57.652;12.514;2023-08-06T04:19:02;1999.90;;;999.90;;
11767;SDS011;5941;57.652;12.514;2023-08-06T04:21:27;1999.90;;;999.90;;
11767;SDS011;5941;57.652;12.514;2023-08-06T04:23:53;1999.90;;;999.90;;
11767;SDS011;5941;57.652;12.514;2023-08-06T04:26:20;1999.90;;;999.90;;
11767;SDS011;5941;57.652;12.514;2023-08-06T04:28:45;1999.90;;;999.90;;
11767;SDS011;5941;57.652;12.514;2023-08-06T04:31:11;1999.90;;;999.90;;
11767;SDS011;5941;57.652;12.514;2023-08-06T04:33:37;1999.90;;;999.90;;
11767;SDS011;5941;57.652;12.514;2023-08-06T04:36:03;1999.90;;;999.90;;
11767;SDS011;5941;57.652;12.514;2023-08-06T04:38:30;1999.90;;;999.90;;
11767;SDS011;5941;57.652;12.514;2023-08-06T04:40:55;1999.90;;;999.90;;
11767;SDS011;5941;57.652;12.514;2023-08-06T04:43:21;1999.90;;;999.90;;
11767;SDS011;5941;57.652;12.514;2023-08-06T04:45:51;1999.90;;;999.90;;
11767;SDS011;5941;57.652;12.514;2023-08-06T04:48:18;1999.90;;;999.90;;
11767;SDS011;5941;57.652;12.514;2023-08-06T04:50:47;1999.90;;;999.90;;
11767;SDS011;5941;57.652;12.514;2023-08-06T04:53:14;1999.90;;;999.90;;
11767;SDS011;5941;57.652;12.514;2023-08-06T04:55:40;1999.90;;;999.90;;
11767;SDS011;5941;57.652;12.514;2023-08-06T04:58:06;1999.90;;;999.90;;
11767;SDS011;5941;57.652;12.514;2023-08-06T05:00:32;1999.90;;;999.90;;
11767;SDS011;5941;57.652;12.514;2023-08-06T05:03:02;1999.90;;;999.90;;
11767;SDS011;5941;57.652;12.514;2023-08-06T05:05:28;1999.90;;;999.90;;
11767;SDS011;5941;57.652;12.514;2023-08-06T05:07:54;1999.90;;;999.90;;
11767;SDS011;5941;57.652;12.514;2023-08-06T05:10:21;1999.90;;;999.90;;
11767;SDS011;5941;57.652;12.514;2023-08-06T05:12:47;1999.90;;;999.90;;
11767;SDS011;5941;57.652;12.514;2023-08-06T05:15:13;1999.90;;;999.90;;
11767;SDS011;5941;57.652;12.514;2023-08-06T05:17:39;1999.90;;;999.90;;
11767;SDS011;5941;57.652;12.514;2023-08-06T05:20:05;1999.90;;;999.90;;
11767;SDS011;5941;57.652;12.514;2023-08-06T05:22:31;1999.90;;;999.90;;
11767;SDS011;5941;57.652;12.514;2023-08-06T05:24:57;1999.90;;;999.90;;
11767;SDS011;5941;57.652;12.514;2023-08-06T05:27:23;1999.90;;;999.90;;
11767;SDS011;5941;57.652;12.514;2023-08-06T05:29:49;1999.90;;;999.90;;
11767;SDS011;5941;57.652;12.514;2023-08-06T05:32:15;1999.90;;;999.90;;
11767;SDS011;5941;57.652;12.514;2023-08-06T05:34:41;1999.90;;;999.90;;
11767;SDS011;5941;57.652;12.514;2023-08-06T05:37:07;1999.90;;;999.90;;
11767;SDS011;5941;57.652;12.514;2023-08-06T05:39:34;1999.90;;;999.90;;
11767;SDS011;5941;57.652;12.514;2023-08-06T05:42:00;1999.90;;;999.90;;
11767;SDS011;5941;57.652;12.514;2023-08-06T05:44:26;1999.90;;;999.90;;
11767;SDS011;5941;57.652;12.514;2023-08-06T05:46:52;1999.90;;;999.90;;
11767;SDS011;5941;57.652;12.514;2023-08-06T05:49:18;1999.90;;;999.90;;
11767;SDS011;5941;57.652;12.514;2023-08-06T05:51:44;1999.90;;;999.90;;
11767;SDS011;5941;57.652;12.514;2023-08-06T05:54:10;1999.90;;;999.90;;
11767;SDS011;5941;57.652;12.514;2023-08-06T05:56:36;1999.90;;;999.90;;
11767;SDS011;5941;57.652;12.514;2023-08-06T05:59:02;1999.90;;;999.90;;
11767;SDS011;5941;57.652;12.514;2023-08-06T06:01:28;1999.90;;;999.90;;
11767;SDS011;5941;57.652;12.514;2023-08-06T06:03:54;1999.90;;;999.90;;
11767;SDS011;5941;57.652;12.514;2023-08-06T06:06:20;1999.90;;;999.90;;
11767;SDS011;5941;57.652;12.514;2023-08-06T06:08:46;1999.90;;;999.90;;
11767;SDS011;5941;57.652;12.514;2023-08-06T06:11:12;1999.90;;;999.90;;
11767;SDS011;5941;57.652;12.514;2023-08-06T06:13:38;1999.90;;;999.90;;
11767;SDS011;5941;57.652;12.514;2023-08-06T06:16:04;1999.90;;;999.90;;
11767;SDS011;5941;57.652;12.514;2023-08-06T06:18:30;1999.90;;;999.90;;
11767;SDS011;5941;57.652;12.514;2023-08-06T06:20:56;1999.90;;;999.90;;
11767;SDS011;5941;57.652;12.514;2023-08-06T06:23:22;1999.90;;;999.90;;
11767;SDS011;5941;57.652;12.514;2023-08-06T06:25:49;1999.90;;;999.90;;
11767;SDS011;5941;57.652;12.514;2023-08-06T06:28:16;1999.90;;;999.90;;
11767;SDS011;5941;57.652;12.514;2023-08-06T06:30:42;1999.90;;;999.90;;
11767;SDS011;5941;57.652;12.514;2023-08-06T06:33:08;1999.90;;;999.90;;
11767;SDS011;5941;57.652;12.514;2023-08-06T06:35:34;1999.90;;;999.90;;
11767;SDS011;5941;57.652;12.514;2023-08-06T06:38:00;1999.90;;;999.90;;
11767;SDS011;5941;57.652;12.514;2023-08-06T06:40:27;1999.90;;;999.90;;
11767;SDS011;5941;57.652;12.514;2023-08-06T06:42:53;1999.90;;;999.90;;
11767;SDS011;5941;57.652;12.514;2023-08-06T06:45:19;1999.90;;;999.90;;
11767;SDS011;5941;57.652;12.514;2023-08-06T06:47:45;1999.90;;;999.90;;
11767;SDS011;5941;57.652;12.514;2023-08-06T06:50:11;1999.90;;;999.90;;
11767;SDS011;5941;57.652;12.514;2023-08-06T06:52:37;1999.90;;;999.90;;
11767;SDS011;5941;57.652;12.514;2023-08-06T06:55:04;1999.90;;;999.90;;
11767;SDS011;5941;57.652;12.514;2023-08-06T06:57:30;1999.90;;;999.90;;
11767;SDS011;5941;57.652;12.514;2023-08-06T06:59:56;1999.90;;;999.90;;
11767;SDS011;5941;57.652;12.514;2023-08-06T07:02:22;1999.90;;;999.90;;
11767;SDS011;5941;57.652;12.514;2023-08-06T07:04:49;1999.90;;;999.90;;
11767;SDS011;5941;57.652;12.514;2023-08-06T07:07:15;1999.90;;;999.90;;
11767;SDS011;5941;57.652;12.514;2023-08-06T07:09:41;1999.90;;;999.90;;
11767;SDS011;5941;57.652;12.514;2023-08-06T07:12:07;1999.90;;;999.90;;
11767;SDS011;5941;57.652;12.514;2023-08-06T07:14:33;1999.90;;;999.90;;
11767;SDS011;5941;57.652;12.514;2023-08-06T07:16:59;1999.90;;;999.90;;
11767;SDS011;5941;57.652;12.514;2023-08-06T07:19:25;1999.90;;;999.90;;
11767;SDS011;5941;57.652;12.514;2023-08-06T07:21:51;1999.90;;;999.90;;
11767;SDS011;5941;57.652;12.514;2023-08-06T07:24:17;1999.90;;;999.90;;
11767;SDS011;5941;57.652;12.514;2023-08-06T07:26:43;1999.90;;;999.90;;
11767;SDS011;5941;57.652;12.514;2023-08-06T07:29:09;1999.90;;;999.90;;
11767;SDS011;5941;57.652;12.514;2023-08-06T07:31:35;1999.90;;;999.90;;
11767;SDS011;5941;57.652;12.514;2023-08-06T07:34:01;1999.90;;;999.90;;
11767;SDS011;5941;57.652;12.514;2023-08-06T07:36:27;1999.90;;;999.90;;
11767;SDS011;5941;57.652;12.514;2023-08-06T07:38:53;1999.90;;;999.90;;
11767;SDS011;5941;57.652;12.514;2023-08-06T07:41:24;1999.90;;;999.90;;
11767;SDS011;5941;57.652;12.514;2023-08-06T07:43:50;1999.90;;;999.90;;
11767;SDS011;5941;57.652;12.514;2023-08-06T07:46:16;1999.90;;;999.90;;
11767;SDS011;5941;57.652;12.514;2023-08-06T07:48:42;1999.90;;;999.90;;
11767;SDS011;5941;57.652;12.514;2023-08-06T07:51:08;1999.90;;;999.90;;
11767;SDS011;5941;57.652;12.514;2023-08-06T07:53:35;1999.90;;;999.90;;
11767;SDS011;5941;57.652;12.514;2023-08-06T07:56:01;1999.90;;;999.90;;
11767;SDS011;5941;57.652;12.514;2023-08-06T07:58:27;1999.90;;;999.90;;
11767;SDS011;5941;57.652;12.514;2023-08-06T08:00:54;1999.90;;;999.90;;
11767;SDS011;5941;57.652;12.514;2023-08-06T08:03:20;1999.90;;;999.90;;
11767;SDS011;5941;57.652;12.514;2023-08-06T08:05:46;1999.90;;;999.90;;
11767;SDS011;5941;57.652;12.514;2023-08-06T08:08:12;1999.90;;;999.90;;
11767;SDS011;5941;57.652;12.514;2023-08-06T08:10:38;1999.90;;;999.90;;
11767;SDS011;5941;57.652;12.514;2023-08-06T08:13:04;1999.90;;;999.90;;
11767;SDS011;5941;57.652;12.514;2023-08-06T08:15:31;1999.90;;;999.90;;
11767;SDS011;5941;57.652;12.514;2023-08-06T08:17:57;1999.90;;;999.90;;
11767;SDS011;5941;57.652;12.514;2023-08-06T08:20:23;1999.90;;;999.90;;
11767;SDS011;5941;57.652;12.514;2023-08-06T08:22:49;1999.90;;;999.90;;
11767;SDS011;5941;57.652;12.514;2023-08-06T08:25:15;1640.95;;;881.03;;
11767;SDS011;5941;57.652;12.514;2023-08-06T08:27:42;1999.90;;;999.90;;
11767;SDS011;5941;57.652;12.514;2023-08-06T08:30:08;1999.90;;;999.90;;
11767;SDS011;5941;57.652;12.514;2023-08-06T08:32:34;1999.90;;;999.90;;
11767;SDS011;5941;57.652;12.514;2023-08-06T08:35:00;1999.90;;;999.90;;
11767;SDS011;5941;57.652;12.514;2023-08-06T08:37:26;1999.90;;;999.90;;
11767;SDS011;5941;57.652;12.514;2023-08-06T08:39:52;1999.90;;;999.90;;
11767;SDS011;5941;57.652;12.514;2023-08-06T08:42:18;900.83;;;843.33;;
11767;SDS011;5941;57.652;12.514;2023-08-06T08:44:45;902.63;;;844.92;;
11767;SDS011;5941;57.652;12.514;2023-08-06T08:47:11;912.67;;;853.42;;
11767;SDS011;5941;57.652;12.514;2023-08-06T08:49:37;1999.90;;;999.90;;
11767;SDS011;5941;57.652;12.514;2023-08-06T08:52:04;911.72;;;853.38;;
11767;SDS011;5941;57.652;12.514;2023-08-06T08:54:35;911.85;;;852.47;;
11767;SDS011;5941;57.652;12.514;2023-08-06T08:57:03;929.20;;;866.55;;
11767;SDS011;5941;57.652;12.514;2023-08-06T08:59:29;917.80;;;857.20;;
11767;SDS011;5941;57.652;12.514;2023-08-06T09:01:55;1194.28;;;898.60;;
11767;SDS011;5941;57.652;12.514;2023-08-06T09:04:22;1999.90;;;999.90;;
11767;SDS011;5941;57.652;12.514;2023-08-06T09:06:51;1999.90;;;999.90;;
11767;SDS011;5941;57.652;12.514;2023-08-06T09:09:34;1999.90;;;999.90;;
11767;SDS011;5941;57.652;12.514;2023-08-06T09:12:05;1999.90;;;999.90;;
11767;SDS011;5941;57.652;12.514;2023-08-06T09:14:31;1999.90;;;999.90;;
11767;SDS011;5941;57.652;12.514;2023-08-06T09:16:57;1999.90;;;999.90;;
11767;SDS011;5941;57.652;12.514;2023-08-06T09:19:23;766.60;;;710.83;;
11767;SDS011;5941;57.652;12.514;2023-08-06T09:21:50;1999.90;;;999.90;;
11767;SDS011;5941;57.652;12.514;2023-08-06T09:24:17;838.42;;;777.92;;
11767;SDS011;5941;57.652;12.514;2023-08-06T09:26:43;953.35;;;887.67;;
11767;SDS011;5941;57.652;12.514;2023-08-06T09:29:09;959.60;;;893.08;;
11767;SDS011;5941;57.652;12.514;2023-08-06T09:31:49;1999.90;;;999.90;;
11767;SDS011;5941;57.652;12.514;2023-08-06T09:34:18;1999.90;;;999.90;;
11767;SDS011;5941;57.652;12.514;2023-08-06T09:36:48;1999.90;;;999.90;;
11767;SDS011;5941;57.652;12.514;2023-08-06T09:39:16;941.17;;;875.00;;
11767;SDS011;5941;57.652;12.514;2023-08-06T09:41:43;1743.90;;;976.22;;
11767;SDS011;5941;57.652;12.514;2023-08-06T09:44:15;970.38;;;902.58;;
11767;SDS011;5941;57.652;12.514;2023-08-06T09:46:41;944.13;;;879.15;;
11767;SDS011;5941;57.652;12.514;2023-08-06T09:49:07;920.53;;;860.08;;
11767;SDS011;5941;57.652;12.514;2023-08-06T09:51:35;934.10;;;871.17;;
11767;SDS011;5941;57.652;12.514;2023-08-06T09:54:04;1999.90;;;999.90;;
11767;SDS011;5941;57.652;12.514;2023-08-06T09:56:31;982.20;;;911.88;;
11767;SDS011;5941;57.652;12.514;2023-08-06T09:59:02;972.50;;;904.45;;
11767;SDS011;5941;57.652;12.514;2023-08-06T10:01:29;970.58;;;902.58;;
11767;SDS011;5941;57.652;12.514;2023-08-06T10:03:55;945.88;;;881.38;;
11767;SDS011;5941;57.652;12.514;2023-08-06T10:06:23;919.80;;;859.90;;
11767;SDS011;5941;57.652;12.514;2023-08-06T10:08:49;967.10;;;899.30;;
11767;SDS011;5941;57.652;12.514;2023-08-06T10:11:15;901.35;;;843.40;;
11767;SDS011;5941;57.652;12.514;2023-08-06T10:13:42;914.17;;;855.00;;
11767;SDS011;5941;57.652;12.514;2023-08-06T10:16:09;904.28;;;846.50;;
11767;SDS011;5941;57.652;12.514;2023-08-06T10:18:36;842.10;;;792.03;;
11767;SDS011;5941;57.652;12.514;2023-08-06T10:21:04;903.65;;;845.47;;
11767;SDS011;5941;57.652;12.514;2023-08-06T10:23:33;879.88;;;824.63;;
11767;SDS011;5941;57.652;12.514;2023-08-06T10:26:03;873.78;;;819.25;;
11767;SDS011;5941;57.652;12.514;2023-08-06T10:28:38;898.22;;;841.70;;
11767;SDS011;5941;57.652;12.514;2023-08-06T10:31:05;813.28;;;766.75;;
11767;SDS011;5941;57.652;12.514;2023-08-06T10:33:41;803.33;;;757.45;;
11767;SDS011;5941;57.652;12.514;2023-08-06T10:36:08;905.88;;;848.20;;
11767;SDS011;5941;57.652;12.514;2023-08-06T10:38:34;913.10;;;854.47;;
11767;SDS011;5941;57.652;12.514;2023-08-06T10:41:03;933.92;;;873.45;;
11767;SDS011;5941;57.652;12.514;2023-08-06T10:43:29;758.92;;;718.75;;
11767;SDS011;5941;57.652;12.514;2023-08-06T10:45:59;909.50;;;851.20;;
11767;SDS011;5941;57.652;12.514;2023-08-06T10:50:57;919.92;;;860.60;;
11767;SDS011;5941;57.652;12.514;2023-08-06T10:53:22;867.70;;;815.38;;
11767;SDS011;5941;57.652;12.514;2023-08-06T10:55:48;891.63;;;836.05;;
11767;SDS011;5941;57.652;12.514;2023-08-06T10:58:15;895.25;;;839.13;;
11767;SDS011;5941;57.652;12.514;2023-08-06T11:00:41;929.88;;;868.63;;
11767;SDS011;5941;57.652;12.514;2023-08-06T11:03:07;890.72;;;835.13;;
11767;SDS011;5941;57.652;12.514;2023-08-06T11:05:34;837.90;;;788.90;;
11767;SDS011;5941;57.652;12.514;2023-08-06T11:08:01;900.83;;;843.53;;
11767;SDS011;5941;57.652;12.514;2023-08-06T11:10:27;868.60;;;816.58;;
11767;SDS011;5941;57.652;12.514;2023-08-06T11:12:53;914.55;;;855.70;;
11767;SDS011;5941;57.652;12.514;2023-08-06T11:15:22;926.65;;;866.38;;
11767;SDS011;5941;57.652;12.514;2023-08-06T11:17:48;933.28;;;871.10;;
11767;SDS011;5941;57.652;12.514;2023-08-06T11:20:15;945.25;;;883.00;;
11767;SDS011;5941;57.652;12.514;2023-08-06T11:22:42;948.97;;;886.17;;
11767;SDS011;5941;57.652;12.514;2023-08-06T11:25:08;957.75;;;893.47;;
11767;SDS011;5941;57.652;12.514;2023-08-06T11:27:34;917.17;;;858.17;;
11767;SDS011;5941;57.652;12.514;2023-08-06T11:30:00;955.20;;;891.45;;
11767;SDS011;5941;57.652;12.514;2023-08-06T11:32:26;948.58;;;885.85;;
11767;SDS011;5941;57.652;12.514;2023-08-06T11:34:53;950.33;;;886.63;;
11767;SDS011;5941;57.652;12.514;2023-08-06T11:37:22;945.70;;;881.85;;
11767;SDS011;5941;57.652;12.514;2023-08-06T11:39:51;939.15;;;876.63;;
11767;SDS011;5941;57.652;12.514;2023-08-06T11:42:17;963.13;;;897.60;;
11767;SDS011;5941;57.652;12.514;2023-08-06T11:44:44;958.10;;;892.65;;
11767;SDS011;5941;57.652;12.514;2023-08-06T11:47:11;965.83;;;899.60;;
11767;SDS011;5941;57.652;12.514;2023-08-06T11:49:41;957.75;;;893.80;;
11767;SDS011;5941;57.652;12.514;2023-08-06T11:52:18;977.47;;;909.85;;
11767;SDS011;5941;57.652;12.514;2023-08-06T11:54:45;991.03;;;921.22;;
11767;SDS011;5941;57.652;12.514;2023-08-06T11:57:11;985.35;;;915.67;;
11767;SDS011;5941;57.652;12.514;2023-08-06T11:59:38;967.75;;;900.88;;
11767;SDS011;5941;57.652;12.514;2023-08-06T12:02:04;965.38;;;899.78;;
11767;SDS011;5941;57.652;12.514;2023-08-06T12:04:31;972.58;;;905.33;;
11767;SDS011;5941;57.652;12.514;2023-08-06T12:07:04;975.97;;;908.35;;
11767;SDS011;5941;57.652;12.514;2023-08-06T12:09:32;919.38;;;860.33;;
11767;SDS011;5941;57.652;12.514;2023-08-06T12:11:58;981.75;;;914.10;;
11767;SDS011;5941;57.652;12.514;2023-08-06T12:14:25;958.60;;;894.00;;
11767;SDS011;5941;57.652;12.514;2023-08-06T12:16:50;958.42;;;893.53;;
11767;SDS011;5941;57.652;12.514;2023-08-06T12:19:16;982.47;;;913.60;;
11767;SDS011;5941;57.652;12.514;2023-08-06T12:21:42;964.47;;;898.80;;
11767;SDS011;5941;57.652;12.514;2023-08-06T12:24:08;1008.55;;;934.92;;
11767;SDS011;5941;57.652;12.514;2023-08-06T12:26:35;981.15;;;912.30;;
11767;SDS011;5941;57.652;12.514;2023-08-06T12:29:01;1002.47;;;928.85;;
11767;SDS011;5941;57.652;12.514;2023-08-06T12:31:27;1999.90;;;999.90;;
11767;SDS011;5941;57.652;12.514;2023-08-06T12:33:53;1999.90;;;999.90;;
11767;SDS011;5941;57.652;12.514;2023-08-06T12:36:19;1999.90;;;999.90;;
11767;SDS011;5941;57.652;12.514;2023-08-06T12:38:45;981.97;;;913.20;;
11767;SDS011;5941;57.652;12.514;2023-08-06T12:41:11;1017.80;;;943.03;;
11767;SDS011;5941;57.652;12.514;2023-08-06T12:43:37;976.63;;;908.22;;
11767;SDS011;5941;57.652;12.514;2023-08-06T12:46:03;951.78;;;887.45;;
11767;SDS011;5941;57.652;12.514;2023-08-06T12:48:29;987.10;;;918.40;;
11767;SDS011;5941;57.652;12.514;2023-08-06T12:50:55;1005.85;;;933.22;;
11767;SDS011;5941;57.652;12.514;2023-08-06T12:53:21;1001.35;;;928.42;;
11767;SDS011;5941;57.652;12.514;2023-08-06T12:55:48;982.53;;;914.05;;
11767;SDS011;5941;57.652;12.514;2023-08-06T12:58:14;983.85;;;915.05;;
11767;SDS011;5941;57.652;12.514;2023-08-06T13:00:40;958.88;;;894.00;;
11767;SDS011;5941;57.652;12.514;2023-08-06T13:03:06;926.60;;;866.53;;
11767;SDS011;5941;57.652;12.514;2023-08-06T13:05:32;952.75;;;889.45;;
11767;SDS011;5941;57.652;12.514;2023-08-06T13:07:58;958.88;;;893.83;;
11767;SDS011;5941;57.652;12.514;2023-08-06T13:10:24;976.42;;;908.17;;
11767;SDS011;5941;57.652;12.514;2023-08-06T13:12:52;987.42;;;918.38;;
11767;SDS011;5941;57.652;12.514;2023-08-06T13:15:18;993.33;;;922.92;;
11767;SDS011;5941;57.652;12.514;2023-08-06T13:17:46;1999.90;;;999.90;;
11767;SDS011;5941;57.652;12.514;2023-08-06T13:20:12;993.25;;;922.92;;
11767;SDS011;5941;57.652;12.514;2023-08-06T13:22:37;1018.28;;;943.28;;
11767;SDS011;5941;57.652;12.514;2023-08-06T13:25:03;1999.90;;;999.90;;
11767;SDS011;5941;57.652;12.514;2023-08-06T13:27:30;984.53;;;915.65;;
11767;SDS011;5941;57.652;12.514;2023-08-06T13:29:55;987.25;;;917.25;;
11767;SDS011;5941;57.652;12.514;2023-08-06T13:32:21;997.70;;;927.05;;
11767;SDS011;5941;57.652;12.514;2023-08-06T13:34:49;1255.10;;;949.65;;
11767;SDS011;5941;57.652;12.514;2023-08-06T13:37:15;992.30;;;921.67;;
11767;SDS011;5941;57.652;12.514;2023-08-06T13:39:41;986.22;;;917.45;;
11767;SDS011;5941;57.652;12.514;2023-08-06T13:42:07;1999.90;;;999.90;;
11767;SDS011;5941;57.652;12.514;2023-08-06T13:44:34;1999.90;;;999.90;;
11767;SDS011;5941;57.652;12.514;2023-08-06T13:47:00;1999.90;;;999.90;;
11767;SDS011;5941;57.652;12.514;2023-08-06T13:49:27;1999.90;;;999.90;;
11767;SDS011;5941;57.652;12.514;2023-08-06T13:51:53;1999.90;;;999.90;;